Time;durP1;ratioP1;P1;durP2;ratioP2;P2;SDS_P1;SDS_P2;PMS_P1;PMS_P2;Temp;Humidity;BMP_temperature;BMP_pressure;BME280_temperature;BME280_humidity;BME280_pressure;Samples;Min_cycle;Max_cycle;Signal;HPM_P1;HPM_P2
2023/05/12 00:00:09;;;;;;;7.60;3.08;;;12.50;73.30;;;;;;4911058;29;20055;-71
2023/05/12 00:02:40;;;;;;;8.50;3.47;;;12.50;73.60;;;;;;4896555;29;20143;-71
2023/05/12 00:05:09;;;;;;;5.50;3.30;;;12.50;73.90;;;;;;4903676;29;20497;-71
2023/05/12 00:07:36;;;;;;;6.22;3.72;;;12.50;74.70;;;;;;4915354;29;20171;-71
2023/05/12 00:10:06;;;;;;;4.45;3.58;;;12.50;75.30;;;;;;4914139;29;20091;-70
2023/05/12 00:12:34;;;;;;;4.32;3.25;;;12.40;75.50;;;;;;4915273;29;20485;-72
2023/05/12 00:15:01;;;;;;;7.93;3.53;;;12.40;75.70;;;;;;4914413;29;20059;-71
2023/05/12 00:17:32;;;;;;;4.85;3.20;;;12.40;76.00;;;;;;4914217;29;20056;-72
2023/05/12 00:20:00;;;;;;;5.60;3.78;;;12.30;76.00;;;;;;4914985;29;20083;-72
2023/05/12 00:22:27;;;;;;;11.00;3.78;;;12.30;76.70;;;;;;4914241;29;20040;-72
2023/05/12 00:24:54;;;;;;;4.82;4.32;;;12.30;77.40;;;;;;4915000;29;20458;-72
2023/05/12 00:27:23;;;;;;;3.72;3.42;;;12.30;77.50;;;;;;4914139;29;20048;-72
2023/05/12 00:29:50;;;;;;;6.38;3.20;;;12.30;78.10;;;;;;4914666;29;20052;-72
2023/05/12 00:32:17;;;;;;;4.75;3.58;;;12.30;78.60;;;;;;4912781;29;20524;-72
2023/05/12 00:34:44;;;;;;;4.05;3.15;;;12.20;78.70;;;;;;4913684;29;20126;-72
2023/05/12 00:37:12;;;;;;;4.43;3.50;;;12.20;79.10;;;;;;4913607;29;20521;-72
2023/05/12 00:39:39;;;;;;;13.70;4.00;;;12.10;79.30;;;;;;4915300;29;20048;-72
2023/05/12 00:42:06;;;;;;;3.80;3.42;;;12.10;80.40;;;;;;4908934;29;20079;-71
2023/05/12 00:44:35;;;;;;;9.68;3.80;;;12.10;80.90;;;;;;4915181;29;20079;-71
2023/05/12 00:47:04;;;;;;;5.70;3.88;;;12.10;81.30;;;;;;4913256;29;20056;-72
2023/05/12 00:49:32;;;;;;;9.18;3.47;;;12.00;81.60;;;;;;4896837;29;20532;-72
2023/05/12 00:51:59;;;;;;;5.47;4.00;;;12.00;82.90;;;;;;4928972;29;20521;-72
2023/05/12 00:54:27;;;;;;;5.60;3.45;;;12.00;82.50;;;;;;4912354;29;20063;-72
2023/05/12 00:56:54;;;;;;;8.25;3.97;;;12.00;82.70;;;;;;4913330;29;20044;-72
2023/05/12 00:59:23;;;;;;;5.45;3.42;;;12.00;83.20;;;;;;4903557;29;20051;-72
2023/05/12 01:01:51;;;;;;;4.43;3.60;;;12.00;83.80;;;;;;4914638;29;20044;-73
2023/05/12 01:04:19;;;;;;;6.53;4.13;;;11.90;83.70;;;;;;4913278;29;20335;-72
2023/05/12 01:06:56;;;;;;;4.88;3.65;;;12.00;84.10;;;;;;4925896;29;20044;-72
2023/05/12 01:09:24;;;;;;;5.03;3.90;;;11.90;84.40;;;;;;4905770;29;20048;-74
2023/05/12 01:11:52;;;;;;;5.13;3.45;;;11.90;84.90;;;;;;4900720;29;20048;-73
2023/05/12 01:14:19;;;;;;;11.98;4.25;;;11.90;85.20;;;;;;4910683;29;20060;-72
2023/05/12 01:17:00;;;;;;;8.13;3.50;;;11.90;86.00;;;;;;4892513;29;20048;-72
2023/05/12 01:19:41;;;;;;;3.83;3.42;;;11.90;85.80;;;;;;4912751;29;20517;-72
2023/05/12 01:22:11;;;;;;;4.05;3.47;;;11.90;86.00;;;;;;4909039;29;20045;-72
2023/05/12 01:24:45;;;;;;;8.10;3.53;;;11.90;86.90;;;;;;4909683;29;20052;-71
2023/05/12 01:27:16;;;;;;;8.48;3.45;;;11.90;87.70;;;;;;4894115;29;20521;-71
2023/05/12 01:29:46;;;;;;;8.77;4.05;;;11.90;88.60;;;;;;4911035;29;20076;-71
2023/05/12 01:32:16;;;;;;;12.25;4.15;;;11.90;89.10;;;;;;4912475;29;20048;-71
2023/05/12 01:34:44;;;;;;;11.45;3.85;;;11.80;90.00;;;;;;4908572;29;20117;-72
2023/05/12 01:37:12;;;;;;;5.00;4.18;;;11.80;90.00;;;;;;4896820;29;20044;-72
2023/05/12 01:39:40;;;;;;;8.85;4.50;;;11.90;90.10;;;;;;4893989;29;20044;-73
2023/05/12 01:42:10;;;;;;;8.50;4.32;;;11.90;90.60;;;;;;4908743;29;20052;-72
2023/05/12 01:44:39;;;;;;;5.55;4.07;;;11.80;91.30;;;;;;4913810;29;20127;-72
2023/05/12 01:47:08;;;;;;;9.38;4.10;;;11.80;92.20;;;;;;4892286;29;20060;-72
2023/05/12 01:49:36;;;;;;;6.57;3.88;;;11.90;92.60;;;;;;4905512;29;20517;-72
2023/05/12 01:52:05;;;;;;;13.60;5.25;;;11.80;93.40;;;;;;4909117;29;20060;-72
2023/05/12 01:54:32;;;;;;;6.82;4.38;;;11.80;93.50;;;;;;4925186;29;20088;-72
2023/05/12 01:57:00;;;;;;;9.63;4.53;;;11.80;94.20;;;;;;4895711;29;20543;-72
2023/05/12 01:59:28;;;;;;;7.40;5.32;;;11.80;95.60;;;;;;4909261;29;20060;-74
2023/05/12 02:01:57;;;;;;;12.35;4.65;;;11.80;96.50;;;;;;4889400;29;20084;-73
2023/05/12 02:04:30;;;;;;;7.40;4.93;;;11.80;96.70;;;;;;4907997;29;20040;-73
2023/05/12 02:06:59;;;;;;;10.88;5.43;;;11.80;97.20;;;;;;4911950;29;20052;-73
2023/05/12 02:09:26;;;;;;;5.18;4.22;;;11.80;99.80;;;;;;4911739;29;20133;-74
2023/05/12 02:11:58;;;;;;;11.27;5.07;;;11.80;99.90;;;;;;4911015;29;20044;-73
2023/05/12 02:14:25;;;;;;;9.93;4.65;;;11.80;99.90;;;;;;4917835;29;20060;-73
2023/05/12 02:16:54;;;;;;;7.47;4.72;;;11.80;99.90;;;;;;4912748;29;20052;-72
2023/05/12 02:19:25;;;;;;;10.25;4.45;;;11.80;99.90;;;;;;4913119;29;20136;-72
2023/05/12 02:21:57;;;;;;;7.90;4.68;;;11.80;99.90;;;;;;4915071;29;20139;-74
2023/05/12 02:24:24;;;;;;;14.23;4.80;;;11.80;99.90;;;;;;4913881;29;20052;-73
2023/05/12 02:26:52;;;;;;;7.25;4.25;;;11.80;99.90;;;;;;4897753;29;20107;-73
2023/05/12 02:29:19;;;;;;;9.05;4.43;;;11.80;99.90;;;;;;4914577;29;20116;-74
2023/05/12 02:31:46;;;;;;;10.40;4.68;;;11.80;99.90;;;;;;4910080;29;20049;-73
2023/05/12 02:34:18;;;;;;;6.07;4.07;;;11.80;99.90;;;;;;4896443;29;20537;-74
2023/05/12 02:36:46;;;;;;;9.13;4.82;;;11.80;99.90;;;;;;4923114;29;20060;-74
2023/05/12 02:39:13;;;;;;;8.35;4.20;;;11.80;99.90;;;;;;4906954;29;20048;-74
2023/05/12 02:41:41;;;;;;;11.43;4.55;;;11.90;99.90;;;;;;4912086;29;20427;-73
2023/05/12 02:44:08;;;;;;;11.07;4.10;;;11.90;99.90;;;;;;4896817;29;20502;-72
2023/05/12 02:46:36;;;;;;;6.78;3.92;;;11.90;99.90;;;;;;4912320;29;20061;-72
2023/05/12 02:49:03;;;;;;;8.05;4.22;;;11.90;99.90;;;;;;4913293;29;20052;-73
2023/05/12 02:51:31;;;;;;;10.75;3.72;;;11.90;99.90;;;;;;4896262;29;20060;-73
2023/05/12 02:54:00;;;;;;;18.27;4.80;;;11.90;99.90;;;;;;4898379;29;20163;-73
2023/05/12 02:56:28;;;;;;;14.05;4.55;;;11.90;99.90;;;;;;4910586;29;20060;-73
2023/05/12 02:58:55;;;;;;;9.05;4.20;;;11.90;99.90;;;;;;4915553;29;20048;-72
2023/05/12 03:01:23;;;;;;;9.88;4.07;;;11.90;99.90;;;;;;4916280;29;20143;-72
2023/05/12 03:03:50;;;;;;;8.95;4.57;;;11.90;99.90;;;;;;4930970;29;20113;-73
2023/05/12 03:06:18;;;;;;;12.27;4.57;;;12.00;99.90;;;;;;4914025;29;20060;-73
2023/05/12 03:08:46;;;;;;;9.60;4.05;;;12.00;99.90;;;;;;4915213;29;20048;-74
2023/05/12 03:11:15;;;;;;;10.10;4.32;;;12.00;99.90;;;;;;4911940;29;20105;-73
2023/05/12 03:13:43;;;;;;;12.02;4.18;;;12.00;99.90;;;;;;4897570;29;20409;-73
2023/05/12 03:16:10;;;;;;;7.07;4.55;;;12.10;99.90;;;;;;4923297;29;20104;-72
2023/05/12 03:18:37;;;;;;;11.90;4.07;;;12.10;99.90;;;;;;4897564;29;20498;-73
2023/05/12 03:21:06;;;;;;;9.38;4.00;;;12.10;99.90;;;;;;4908324;29;20139;-73
2023/05/12 03:23:33;;;;;;;27.85;5.05;;;12.10;99.90;;;;;;4913231;29;20048;-73
2023/05/12 03:26:01;;;;;;;18.58;4.15;;;12.10;99.90;;;;;;4916251;29;20545;-73
2023/05/12 03:28:31;;;;;;;9.85;4.13;;;12.10;99.90;;;;;;4916308;29;20119;-72
2023/05/12 03:30:58;;;;;;;13.40;4.60;;;12.20;99.90;;;;;;4898867;29;20529;-72
2023/05/12 03:33:25;;;;;;;13.48;5.55;;;12.20;99.90;;;;;;4913885;29;20513;-72
2023/05/12 03:35:54;;;;;;;12.82;4.45;;;12.20;99.90;;;;;;4911251;29;20079;-72
2023/05/12 03:38:21;;;;;;;10.88;4.97;;;12.20;99.90;;;;;;4911352;29;20048;-72
2023/05/12 03:40:51;;;;;;;28.20;5.18;;;12.20;99.90;;;;;;4920430;29;20060;-72
2023/05/12 03:43:20;;;;;;;6.43;3.90;;;12.20;99.90;;;;;;4897765;29;20056;-71
2023/05/12 03:45:49;;;;;;;7.50;3.75;;;12.30;99.90;;;;;;4906024;29;20121;-74
2023/05/12 03:48:17;;;;;;;8.90;4.47;;;12.40;99.90;;;;;;4897160;29;20049;-72
2023/05/12 03:50:44;;;;;;;11.65;3.92;;;12.40;99.90;;;;;;4901973;29;20174;-74
2023/05/12 03:53:13;;;;;;;8.35;4.38;;;12.40;99.90;;;;;;4910600;29;20064;-71
2023/05/12 03:55:41;;;;;;;12.18;4.22;;;12.50;99.90;;;;;;4912187;29;20075;-77
2023/05/12 03:58:08;;;;;;;4.57;3.78;;;12.50;99.90;;;;;;4907823;29;20155;-72
2023/05/12 04:00:36;;;;;;;7.50;4.50;;;12.50;99.90;;;;;;4911422;29;20048;-72
2023/05/12 04:03:05;;;;;;;10.52;4.25;;;12.60;99.90;;;;;;4906393;29;20052;-77
2023/05/12 04:05:33;;;;;;;13.15;4.45;;;12.50;99.90;;;;;;4906353;29;20049;-71
2023/05/12 04:08:01;;;;;;;7.65;3.88;;;12.60;99.90;;;;;;4910516;29;20052;-72
2023/05/12 04:10:30;;;;;;;8.07;4.53;;;12.70;99.90;;;;;;4914438;29;20079;-72
2023/05/12 04:12:57;;;;;;;8.82;4.03;;;12.70;99.90;;;;;;4908246;29;20452;-73
2023/05/12 04:15:26;;;;;;;6.13;4.20;;;12.70;99.90;;;;;;4909310;29;20052;-71
2023/05/12 04:17:56;;;;;;;7.13;4.20;;;12.80;99.90;;;;;;4914858;29;20052;-72
2023/05/12 04:20:25;;;;;;;11.05;4.30;;;12.80;99.90;;;;;;4914506;29;20052;-74
2023/05/12 04:22:52;;;;;;;9.05;4.75;;;12.90;99.90;;;;;;4905018;29;20155;-79
2023/05/12 04:25:20;;;;;;;59.78;7.70;;;13.00;99.90;;;;;;4910739;29;20048;-69
2023/05/12 04:27:47;;;;;;;11.88;4.10;;;13.10;99.90;;;;;;4914778;29;20431;-75
2023/05/12 04:30:19;;;;;;;10.43;4.20;;;13.20;99.90;;;;;;4911666;29;20047;-71
2023/05/12 04:32:47;;;;;;;10.55;4.50;;;13.20;99.90;;;;;;4912978;29;20044;-71
2023/05/12 04:35:14;;;;;;;14.55;4.40;;;13.20;99.90;;;;;;4920263;29;20128;-73
2023/05/12 04:37:43;;;;;;;9.45;4.10;;;13.20;99.90;;;;;;4923991;29;20119;-71
2023/05/12 04:40:11;;;;;;;12.68;4.78;;;13.30;99.90;;;;;;4903826;29;20040;-72
2023/05/12 04:42:38;;;;;;;9.27;3.92;;;13.30;99.90;;;;;;4912430;29;20155;-72
2023/05/12 04:45:08;;;;;;;5.88;4.15;;;13.40;99.90;;;;;;4910390;29;20510;-71
2023/05/12 04:47:39;;;;;;;7.43;3.63;;;13.50;99.90;;;;;;4911068;29;20143;-71
2023/05/12 04:50:09;;;;;;;6.28;4.28;;;13.50;99.90;;;;;;4895142;29;20414;-72
2023/05/12 04:52:36;;;;;;;5.95;3.90;;;13.50;99.90;;;;;;4911112;29;20323;-72
2023/05/12 04:55:08;;;;;;;9.02;4.10;;;13.50;99.90;;;;;;4910334;29;20040;-71
2023/05/12 04:57:35;;;;;;;8.82;4.13;;;13.50;99.90;;;;;;4912389;29;20051;-71
2023/05/12 05:00:05;;;;;;;7.40;4.82;;;13.60;99.90;;;;;;4913549;29;20048;-72
2023/05/12 05:02:36;;;;;;;9.00;4.30;;;13.60;99.90;;;;;;4913258;29;20052;-72
2023/05/12 05:05:04;;;;;;;10.10;4.25;;;13.70;99.90;;;;;;4896349;29;20103;-72
2023/05/12 05:07:32;;;;;;;10.52;3.70;;;13.80;99.90;;;;;;4916860;29;20071;-72
2023/05/12 05:09:59;;;;;;;12.93;4.45;;;13.80;99.90;;;;;;4913206;29;20052;-71
2023/05/12 05:12:28;;;;;;;11.52;3.75;;;13.90;99.90;;;;;;4927593;29;20071;-72
2023/05/12 05:14:56;;;;;;;7.05;4.57;;;14.00;99.90;;;;;;4908772;29;20056;-71
2023/05/12 05:17:23;;;;;;;7.70;3.80;;;14.10;99.90;;;;;;4912277;29;20123;-72
2023/05/12 05:19:50;;;;;;;11.85;4.32;;;14.20;99.90;;;;;;4907535;29;20514;-71
2023/05/12 05:22:18;;;;;;;9.88;4.05;;;14.30;99.90;;;;;;4908255;29;20079;-70
2023/05/12 05:24:45;;;;;;;12.75;4.15;;;14.60;99.90;;;;;;4901424;29;20048;-70
2023/05/12 05:27:12;;;;;;;6.75;3.72;;;14.90;99.90;;;;;;4907917;29;20514;-71
2023/05/12 05:29:41;;;;;;;14.13;4.03;;;15.40;99.90;;;;;;4892114;29;20058;-71
2023/05/12 05:32:09;;;;;;;6.57;3.65;;;15.90;99.90;;;;;;4913401;29;20052;-72
2023/05/12 05:34:37;;;;;;;8.82;4.38;;;16.30;99.60;;;;;;4913667;29;20071;-70
2023/05/12 05:37:04;;;;;;;16.13;4.10;;;16.80;97.40;;;;;;4911055;29;20060;-71
2023/05/12 05:39:31;;;;;;;13.98;4.00;;;17.20;95.50;;;;;;4928203;29;20153;-73
2023/05/12 05:41:59;;;;;;;8.80;4.68;;;17.50;93.00;;;;;;4913729;29;20052;-70
2023/05/12 05:44:26;;;;;;;10.55;4.07;;;17.70;91.90;;;;;;4912528;29;20059;-73
2023/05/12 05:46:55;;;;;;;7.63;4.10;;;17.90;90.90;;;;;;4912220;29;20067;-71
2023/05/12 05:49:24;;;;;;;12.52;4.40;;;18.20;88.60;;;;;;4913864;29;20048;-71
2023/05/12 05:51:56;;;;;;;9.73;3.90;;;18.50;86.10;;;;;;4900225;29;20052;-71
2023/05/12 05:54:24;;;;;;;18.00;4.22;;;18.90;84.40;;;;;;4901077;29;20052;-77
2023/05/12 05:56:51;;;;;;;12.25;3.90;;;19.40;82.00;;;;;;4916197;29;20064;-77
2023/05/12 05:59:19;;;;;;;22.13;4.80;;;19.80;78.40;;;;;;4916815;29;20056;-77
2023/05/12 06:01:46;;;;;;;10.25;3.50;;;20.20;76.20;;;;;;4915863;29;20052;-77
2023/05/12 06:04:15;;;;;;;5.75;3.95;;;20.70;73.00;;;;;;4918123;29;20056;-75
2023/05/12 06:06:42;;;;;;;12.55;4.25;;;21.00;69.20;;;;;;4916135;29;20067;-78
2023/05/12 06:09:11;;;;;;;8.68;3.63;;;21.20;68.60;;;;;;4918078;29;20052;-77
2023/05/12 06:11:39;;;;;;;9.25;3.80;;;21.60;67.00;;;;;;4916957;29;20052;-77
2023/05/12 06:14:06;;;;;;;8.00;3.85;;;21.80;64.10;;;;;;4900672;29;20052;-78
2023/05/12 06:16:34;;;;;;;8.32;4.03;;;22.00;62.80;;;;;;4916116;29;20054;-77
2023/05/12 06:19:01;;;;;;;15.20;3.83;;;22.10;61.30;;;;;;4915888;29;20107;-76
2023/05/12 06:21:31;;;;;;;8.70;3.22;;;22.20;60.40;;;;;;4916140;29;20134;-77
2023/05/12 06:23:58;;;;;;;7.47;3.33;;;22.30;59.10;;;;;;4917685;29;20055;-78
2023/05/12 06:26:25;;;;;;;5.45;3.10;;;22.30;58.50;;;;;;4912703;29;20143;-78
2023/05/12 06:28:52;;;;;;;9.15;3.65;;;22.30;58.30;;;;;;4908455;29;20521;-76
2023/05/12 06:31:20;;;;;;;7.78;3.60;;;22.60;57.20;;;;;;4915835;29;20059;-78
2023/05/12 06:33:48;;;;;;;3.70;3.15;;;22.80;56.00;;;;;;4914772;29;20059;-76
2023/05/12 06:36:15;;;;;;;9.77;3.60;;;23.10;56.20;;;;;;4910384;29;20500;-76
2023/05/12 06:38:44;;;;;;;10.10;4.15;;;23.30;55.90;;;;;;4913068;29;20056;-77
2023/05/12 06:41:13;;;;;;;5.78;3.25;;;23.70;55.30;;;;;;4929510;29;20052;-76
2023/05/12 06:43:43;;;;;;;8.55;3.70;;;24.10;54.40;;;;;;4913346;29;20111;-77
2023/05/12 06:46:11;;;;;;;8.38;4.05;;;24.30;54.20;;;;;;4914148;29;20055;-77
2023/05/12 06:48:38;;;;;;;13.60;3.97;;;24.70;53.60;;;;;;4913108;29;20044;-78
2023/05/12 06:51:06;;;;;;;9.20;3.90;;;24.90;53.40;;;;;;4913360;29;20056;-76
2023/05/12 06:53:36;;;;;;;7.97;3.72;;;25.20;52.40;;;;;;4917041;29;20474;-76
2023/05/12 06:56:05;;;;;;;14.50;4.38;;;25.40;51.90;;;;;;4915911;29;20532;-78
2023/05/12 06:58:33;;;;;;;9.68;4.07;;;25.70;52.10;;;;;;4914763;29;20525;-77
2023/05/12 07:01:00;;;;;;;13.55;3.53;;;25.90;50.60;;;;;;4915364;29;20455;-77
2023/05/12 07:03:27;;;;;;;11.82;3.90;;;26.10;50.10;;;;;;4916981;29;20048;-78
2023/05/12 07:05:54;;;;;;;15.30;4.18;;;26.10;49.00;;;;;;4914388;29;20056;-76
2023/05/12 07:08:21;;;;;;;7.40;3.80;;;26.20;49.30;;;;;;4916598;29;20073;-76
2023/05/12 07:10:49;;;;;;;13.07;4.72;;;26.40;48.80;;;;;;4915357;29;20134;-77
2023/05/12 07:13:18;;;;;;;20.20;4.55;;;26.50;48.90;;;;;;4916010;29;20063;-78
2023/05/12 07:15:45;;;;;;;13.13;7.63;;;26.70;48.00;;;;;;4912773;29;20052;-77
2023/05/12 07:18:12;;;;;;;16.42;4.53;;;27.00;48.10;;;;;;4916255;29;20059;-76
2023/05/12 07:20:40;;;;;;;9.30;4.15;;;27.10;48.00;;;;;;4911773;29;20574;-76
2023/05/12 07:23:08;;;;;;;11.90;4.35;;;27.40;47.10;;;;;;4902568;29;20497;-77
2023/05/12 07:25:35;;;;;;;10.40;4.13;;;27.50;46.90;;;;;;4916158;29;20518;-76
2023/05/12 07:28:02;;;;;;;9.38;4.30;;;27.80;47.50;;;;;;4916261;29;20507;-77
2023/05/12 07:30:31;;;;;;;12.98;4.63;;;28.00;46.60;;;;;;4911344;29;20100;-77
2023/05/12 07:33:00;;;;;;;9.57;4.20;;;28.00;45.70;;;;;;4909576;29;20083;-77
2023/05/12 07:35:27;;;;;;;10.60;3.67;;;28.10;45.40;;;;;;4911472;29;20100;-78
2023/05/12 07:37:54;;;;;;;10.80;4.18;;;28.20;44.90;;;;;;4897144;29;20052;-76
2023/05/12 07:40:22;;;;;;;13.82;4.20;;;28.40;45.00;;;;;;4897463;29;20051;-77
2023/05/12 07:42:49;;;;;;;6.38;3.67;;;28.60;44.70;;;;;;4909421;29;20052;-77
2023/05/12 07:45:21;;;;;;;11.73;3.95;;;28.60;43.40;;;;;;4915683;29;20052;-76
2023/05/12 07:47:50;;;;;;;12.60;5.00;;;28.80;43.40;;;;;;4915803;29;20094;-76
2023/05/12 07:50:18;;;;;;;12.27;4.63;;;28.80;43.20;;;;;;4914023;29;20454;-71
2023/05/12 07:52:49;;;;;;;6.45;2.90;;;28.90;42.70;;;;;;4928634;29;20540;-71
2023/05/12 07:55:17;;;;;;;8.43;3.72;;;28.80;42.00;;;;;;4901235;29;20066;-71
2023/05/12 07:57:44;;;;;;;17.05;3.47;;;29.00;42.80;;;;;;4915379;29;20088;-72
2023/05/12 08:00:13;;;;;;;15.70;4.95;;;29.10;43.10;;;;;;4910112;29;20055;-71
2023/05/12 08:02:42;;;;;;;9.15;3.55;;;29.50;43.70;;;;;;4913455;29;20425;-72
2023/05/12 08:05:11;;;;;;;6.55;4.13;;;29.70;43.90;;;;;;4908584;29;20111;-75
2023/05/12 08:07:42;;;;;;;9.38;3.92;;;30.00;43.70;;;;;;4913062;29;20073;-71
2023/05/12 08:10:11;;;;;;;12.90;4.18;;;30.00;43.50;;;;;;4901304;29;20044;-72
2023/05/12 08:12:40;;;;;;;9.30;3.80;;;30.10;43.90;;;;;;4896198;29;20052;-70
2023/05/12 08:15:08;;;;;;;14.25;4.28;;;30.40;43.80;;;;;;4899649;29;20485;-70
2023/05/12 08:17:38;;;;;;;9.35;3.75;;;30.70;44.20;;;;;;4915003;29;20063;-70
2023/05/12 08:20:06;;;;;;;9.43;4.00;;;30.80;43.20;;;;;;4915326;29;20058;-70
2023/05/12 08:22:38;;;;;;;16.10;5.25;;;31.00;43.40;;;;;;4915228;29;20514;-70
2023/05/12 08:25:07;;;;;;;19.75;6.55;;;30.80;43.10;;;;;;4909374;29;20143;-69
2023/05/12 08:27:35;;;;;;;24.73;4.97;;;30.80;43.60;;;;;;4908396;29;20521;-70
2023/05/12 08:30:02;;;;;;;10.88;4.22;;;31.00;43.20;;;;;;4915181;29;20054;-70
2023/05/12 08:32:34;;;;;;;66.20;9.90;;;31.00;43.00;;;;;;4931069;29;20481;-70
2023/05/12 08:35:02;;;;;;;9.93;4.43;;;31.00;43.10;;;;;;4929002;29;20139;-70
2023/05/12 08:37:32;;;;;;;18.90;4.07;;;31.20;43.30;;;;;;4914207;29;20076;-71
2023/05/12 08:40:00;;;;;;;9.15;4.25;;;31.60;42.50;;;;;;4911267;29;20141;-71
2023/05/12 08:42:35;;;;;;;12.80;4.03;;;31.60;42.50;;;;;;4929582;29;20090;-77
2023/05/12 08:45:03;;;;;;;13.75;4.05;;;31.60;42.70;;;;;;4912148;29;20075;-77
2023/05/12 08:47:33;;;;;;;9.38;3.67;;;31.70;43.60;;;;;;4914754;29;20060;-76
2023/05/12 08:50:02;;;;;;;11.18;4.05;;;31.90;42.00;;;;;;4901163;29;20474;-76
2023/05/12 08:52:36;;;;;;;9.00;3.90;;;32.20;41.80;;;;;;4907521;29;20044;-75
2023/05/12 08:55:07;;;;;;;8.35;3.63;;;32.20;41.90;;;;;;4908872;29;20052;-75
2023/05/12 08:57:35;;;;;;;9.88;3.40;;;32.40;42.20;;;;;;4912290;29;20056;-77
2023/05/12 09:00:04;;;;;;;5.97;3.33;;;32.70;41.00;;;;;;4893267;29;20060;-76
2023/05/12 09:02:39;;;;;;;11.38;3.53;;;32.90;40.40;;;;;;4912931;29;20056;-76
2023/05/12 09:05:07;;;;;;;10.93;2.92;;;32.80;40.50;;;;;;4911965;29;20071;-76
2023/05/12 09:07:35;;;;;;;8.10;3.25;;;32.60;40.60;;;;;;4912726;29;20545;-75
2023/05/12 09:10:07;;;;;;;74.65;6.18;;;32.90;40.80;;;;;;4908969;29;20056;-76
2023/05/12 09:12:37;;;;;;;9.60;3.65;;;33.00;40.50;;;;;;4908642;29;22979;-75
2023/05/12 09:15:07;;;;;;;26.00;3.85;;;33.00;39.70;;;;;;4911070;29;20052;-71
2023/05/12 09:17:35;;;;;;;14.65;3.80;;;33.10;40.50;;;;;;4914085;29;20585;-72
2023/05/12 09:20:04;;;;;;;19.02;3.90;;;33.20;40.10;;;;;;4910836;29;20072;-76
2023/05/12 09:22:34;;;;;;;17.77;3.47;;;33.60;37.90;;;;;;4919455;29;20052;-75
2023/05/12 09:25:17;;;;;;;17.88;3.28;;;34.00;37.50;;;;;;4910899;29;20536;-75
2023/05/12 09:27:47;;;;;;;14.85;3.95;;;33.80;36.40;;;;;;4917872;29;20504;-75
2023/05/12 09:30:15;;;;;;;21.27;3.38;;;33.60;35.50;;;;;;4915849;29;20068;-75
2023/05/12 09:32:43;;;;;;;23.20;3.53;;;33.20;35.30;;;;;;4916896;29;20047;-75
2023/05/12 09:35:11;;;;;;;16.30;3.33;;;33.30;35.00;;;;;;4912152;29;20450;-70
2023/05/12 09:37:39;;;;;;;11.35;3.22;;;33.30;34.90;;;;;;4912952;29;20052;-72
2023/05/12 09:40:10;;;;;;;5.82;2.72;;;33.40;35.00;;;;;;4914431;29;20057;-71
2023/05/12 09:42:42;;;;;;;10.17;2.90;;;33.50;34.20;;;;;;4908943;29;20052;-70
2023/05/12 09:45:09;;;;;;;;;;;33.40;33.80;;;;;;4912076;29;20505;-71
2023/05/12 09:47:37;;;;;;;15.10;3.10;;;33.40;33.40;;;;;;4906126;29;20059;-71
2023/05/12 09:50:07;;;;;;;22.27;3.60;;;33.30;34.10;;;;;;4915647;29;20139;-71
2023/05/12 09:52:37;;;;;;;20.02;3.55;;;33.20;33.10;;;;;;4913648;29;20044;-71
2023/05/12 09:55:08;;;;;;;29.95;3.92;;;32.60;33.40;;;;;;4915236;29;20439;-70
2023/05/12 09:57:40;;;;;;;14.07;3.20;;;32.60;32.90;;;;;;4912682;29;20134;-71
2023/05/12 10:00:10;;;;;;;14.68;3.55;;;32.00;33.30;;;;;;4910836;29;20052;-70
2023/05/12 10:02:41;;;;;;;29.10;3.88;;;32.00;33.30;;;;;;4914722;29;20055;-71
2023/05/12 10:05:14;;;;;;;42.50;3.47;;;32.10;33.50;;;;;;4913122;29;20044;-71
2023/05/12 10:07:44;;;;;;;10.20;3.17;;;32.20;33.50;;;;;;4915649;29;20060;-71
2023/05/12 10:10:14;;;;;;;11.48;3.28;;;32.50;33.70;;;;;;4910502;29;20135;-72
2023/05/12 10:12:43;;;;;;;14.38;3.40;;;32.70;33.20;;;;;;4911809;29;20107;-71
2023/05/12 10:15:12;;;;;;;11.48;2.83;;;32.80;33.60;;;;;;4915109;29;20044;-71
2023/05/12 10:17:41;;;;;;;10.10;3.03;;;32.70;32.80;;;;;;4897317;29;20067;-74
2023/05/12 10:20:09;;;;;;;14.30;3.10;;;32.80;33.40;;;;;;4909924;29;20095;-72
2023/05/12 10:22:39;;;;;;;9.65;2.85;;;33.00;33.10;;;;;;4910034;29;20146;-72
2023/05/12 10:25:08;;;;;;;6.32;2.90;;;33.00;32.90;;;;;;4910149;29;20059;-71
2023/05/12 10:27:44;;;;;;;12.60;3.05;;;33.00;33.30;;;;;;4915994;29;20059;-72
2023/05/12 10:30:16;;;;;;;12.38;3.00;;;33.00;33.40;;;;;;4914292;29;20044;-70
2023/05/12 10:32:43;;;;;;;19.60;3.30;;;33.30;33.90;;;;;;4905123;29;20045;-71
2023/05/12 10:35:12;;;;;;;23.08;3.50;;;33.70;32.80;;;;;;4915765;29;20070;-72
2023/05/12 10:37:41;;;;;;;15.65;2.78;;;33.40;32.50;;;;;;4916358;29;20090;-71
2023/05/12 10:40:10;;;;;;;8.98;2.78;;;33.40;32.70;;;;;;4915745;29;20051;-71
2023/05/12 10:42:38;;;;;;;11.13;3.42;;;33.40;32.50;;;;;;4912575;29;20506;-71
2023/05/12 10:45:17;;;;;;;34.75;3.63;;;33.10;32.50;;;;;;4916257;29;20068;-70
2023/05/12 10:47:45;;;;;;;10.50;3.17;;;33.00;32.60;;;;;;4906908;29;20340;-70
2023/05/12 10:50:13;;;;;;;8.65;2.63;;;33.00;32.80;;;;;;4909965;29;20099;-75
2023/05/12 10:52:41;;;;;;;9.32;2.92;;;33.20;32.10;;;;;;4910924;29;20147;-74
2023/05/12 10:55:13;;;;;;;17.95;3.08;;;33.30;32.40;;;;;;4913539;29;20540;-76
2023/05/12 10:57:50;;;;;;;6.25;2.72;;;33.30;32.50;;;;;;4917428;29;20059;-76
2023/05/12 11:00:24;;;;;;;11.57;2.78;;;33.60;32.40;;;;;;4904919;29;20541;-75
2023/05/12 11:02:51;;;;;;;9.00;2.60;;;33.20;32.10;;;;;;4908574;29;20072;-75
2023/05/12 11:05:18;;;;;;;14.27;4.63;;;32.80;33.10;;;;;;4905577;29;20427;-75
2023/05/12 11:07:49;;;;;;;12.77;2.90;;;32.80;32.70;;;;;;4905165;29;20114;-75
2023/05/12 11:10:17;;;;;;;14.18;2.85;;;33.10;32.60;;;;;;4922304;29;20100;-75
2023/05/12 11:12:44;;;;;;;16.25;2.67;;;33.40;32.00;;;;;;4909910;29;20053;-74
2023/05/12 11:15:12;;;;;;;8.77;2.72;;;33.80;32.10;;;;;;4904664;29;20096;-77
2023/05/12 11:17:41;;;;;;;14.63;2.65;;;33.80;31.60;;;;;;4907190;29;20048;-77
2023/05/12 11:20:21;;;;;;;7.18;2.35;;;34.00;31.70;;;;;;4906321;29;20147;-76
2023/05/12 11:22:49;;;;;;;13.43;2.40;;;34.40;30.80;;;;;;4906505;29;20056;-72
2023/05/12 11:25:17;;;;;;;12.93;2.80;;;34.50;30.60;;;;;;4905721;29;20071;-71
2023/05/12 11:27:48;;;;;;;13.85;3.03;;;34.30;31.10;;;;;;4919891;29;22449;-70
2023/05/12 11:30:16;;;;;;;10.40;2.63;;;34.30;31.10;;;;;;4911806;29;20115;-72
2023/05/12 11:32:45;;;;;;;6.30;2.50;;;34.10;31.20;;;;;;4907185;29;20480;-70
2023/05/12 11:35:14;;;;;;;3.35;2.40;;;34.10;31.00;;;;;;4910042;29;20048;-70
2023/05/12 11:37:43;;;;;;;13.73;2.85;;;34.30;31.00;;;;;;4907244;29;20979;-76
2023/05/12 11:40:18;;;;;;;11.40;2.83;;;34.40;31.10;;;;;;4909324;29;20048;-75
2023/05/12 11:42:51;;;;;;;13.50;3.00;;;34.50;31.30;;;;;;4906633;29;20488;-76
2023/05/12 11:45:27;;;;;;;15.30;6.57;;;34.40;30.80;;;;;;4919360;29;20159;-75
2023/05/12 11:48:10;;;;;;;25.80;15.80;;;34.50;31.10;;;;;;4907371;29;20409;-76
2023/05/12 11:50:39;;;;;;;12.15;3.65;;;35.00;31.10;;;;;;4903193;29;20542;-76
2023/05/12 11:53:13;;;;;;;12.82;3.17;;;35.10;30.60;;;;;;4910781;29;20044;-72
2023/05/12 11:55:48;;;;;;;8.95;2.78;;;35.10;30.60;;;;;;4914471;29;20059;-74
2023/05/12 11:58:20;;;;;;;17.90;2.58;;;35.00;30.90;;;;;;4913635;29;20064;-71
2023/05/12 12:00:48;;;;;;;;;;;35.10;30.40;;;;;;4912656;29;20052;-71
2023/05/12 12:03:17;;;;;;;13.82;2.88;;;35.10;31.20;;;;;;4914712;29;19927;-71
2023/05/12 12:05:57;;;;;;;13.07;2.90;;;35.20;31.10;;;;;;4912697;29;20056;-73
2023/05/12 12:08:25;;;;;;;10.90;3.10;;;35.60;31.00;;;;;;4906668;29;20060;-72
2023/05/12 12:10:52;;;;;;;18.02;2.85;;;35.70;31.00;;;;;;4911233;29;20050;-72
2023/05/12 12:13:21;;;;;;;12.65;2.90;;;35.50;30.50;;;;;;4906404;29;20062;-72
2023/05/12 12:15:48;;;;;;;9.57;2.45;;;35.70;31.20;;;;;;4910960;29;20525;-71
2023/05/12 12:18:17;;;;;;;12.93;3.35;;;35.70;30.80;;;;;;4914000;29;20138;-72
2023/05/12 12:20:45;;;;;;;14.07;2.53;;;35.90;31.00;;;;;;4912975;29;20058;-71
2023/05/12 12:23:12;;;;;;;14.82;2.60;;;35.90;30.60;;;;;;4914343;29;20521;-71
2023/05/12 12:25:40;;;;;;;15.15;2.60;;;36.00;30.80;;;;;;4913513;29;20048;-71
2023/05/12 12:28:07;;;;;;;42.83;3.80;;;35.90;31.00;;;;;;4913255;29;20048;-74
2023/05/12 12:30:43;;;;;;;18.15;2.95;;;35.90;30.90;;;;;;4914456;29;20048;-76
2023/05/12 12:33:28;;;;;;;11.13;2.80;;;35.80;30.80;;;;;;4912215;29;20502;-74
2023/05/12 12:36:02;;;;;;;15.13;2.85;;;35.50;30.80;;;;;;4913748;29;20056;-75
2023/05/12 12:38:30;;;;;;;16.02;2.80;;;35.30;30.90;;;;;;4929097;28;20519;-75
2023/05/12 12:41:08;;;;;;;16.90;3.33;;;35.10;30.60;;;;;;4952315;28;20043;-76
2023/05/12 12:43:38;;;;;;;13.57;2.70;;;35.00;30.90;;;;;;4946435;28;20581;-77
2023/05/12 12:46:06;;;;;;;11.40;2.75;;;35.20;30.80;;;;;;4947849;28;20168;-77
2023/05/12 12:48:35;;;;;;;8.90;2.65;;;35.30;30.60;;;;;;4932243;29;20093;-76
2023/05/12 12:51:06;;;;;;;13.00;3.03;;;35.10;30.40;;;;;;4943468;28;20043;-75